sensor_id;sensor_type;location;lat;lon;timestamp;pressure;altitude;pressure_sealevel;temperature;humidity
68301;BME280;55146;47.468;18.806;2023-04-03T00:01:18;99986.25;;;6.57;68.27
68301;BME280;55146;47.468;18.806;2023-04-03T00:03:44;99979.28;;;6.66;67.91
68301;BME280;55146;47.468;18.806;2023-04-03T00:06:11;99979.59;;;6.69;67.12
68301;BME280;55146;47.468;18.806;2023-04-03T00:08:37;99983.78;;;6.38;67.85
68301;BME280;55146;47.468;18.806;2023-04-03T00:11:04;99987.75;;;6.47;68.57
68301;BME280;55146;47.468;18.806;2023-04-03T00:13:30;99987.00;;;6.52;68.36
68301;BME280;55146;47.468;18.806;2023-04-03T00:15:55;99988.38;;;6.55;68.05
68301;BME280;55146;47.468;18.806;2023-04-03T00:18:21;99987.41;;;6.44;68.04
68301;BME280;55146;47.468;18.806;2023-04-03T00:20:47;99999.16;;;6.44;68.28
68301;BME280;55146;47.468;18.806;2023-04-03T00:23:13;100010.75;;;6.52;67.82
68301;BME280;55146;47.468;18.806;2023-04-03T00:25:38;100012.97;;;6.55;67.65
68301;BME280;55146;47.468;18.806;2023-04-03T00:28:04;100009.09;;;6.50;68.17
68301;BME280;55146;47.468;18.806;2023-04-03T00:30:30;100018.28;;;6.61;67.24
68301;BME280;55146;47.468;18.806;2023-04-03T00:32:56;100012.44;;;6.53;67.13
68301;BME280;55146;47.468;18.806;2023-04-03T00:35:22;100015.47;;;6.56;67.54
68301;BME280;55146;47.468;18.806;2023-04-03T00:37:50;100012.66;;;6.51;67.39
68301;BME280;55146;47.468;18.806;2023-04-03T00:40:16;100008.62;;;6.54;68.09
68301;BME280;55146;47.468;18.806;2023-04-03T00:42:43;100012.06;;;6.49;67.54
68301;BME280;55146;47.468;18.806;2023-04-03T00:45:23;100008.88;;;6.35;67.04
68301;BME280;55146;47.468;18.806;2023-04-03T00:47:49;100013.66;;;6.45;67.64
68301;BME280;55146;47.468;18.806;2023-04-03T00:50:14;100015.81;;;6.43;68.51
68301;BME280;55146;47.468;18.806;2023-04-03T00:52:40;100012.34;;;6.47;67.21
68301;BME280;55146;47.468;18.806;2023-04-03T00:55:07;100011.75;;;6.45;67.05
68301;BME280;55146;47.468;18.806;2023-04-03T00:57:33;100016.25;;;6.35;66.78
68301;BME280;55146;47.468;18.806;2023-04-03T01:00:07;100016.31;;;6.40;67.12
68301;BME280;55146;47.468;18.806;2023-04-03T01:02:34;100018.97;;;6.35;66.98
68301;BME280;55146;47.468;18.806;2023-04-03T01:05:00;100020.53;;;6.31;67.22
68301;BME280;55146;47.468;18.806;2023-04-03T01:07:30;100016.31;;;6.40;66.93
68301;BME280;55146;47.468;18.806;2023-04-03T01:09:58;100023.34;;;6.36;67.24
68301;BME280;55146;47.468;18.806;2023-04-03T01:12:25;100025.44;;;6.29;67.04
68301;BME280;55146;47.468;18.806;2023-04-03T01:14:53;100022.69;;;6.12;66.80
68301;BME280;55146;47.468;18.806;2023-04-03T01:25:47;100026.41;;;6.06;67.65
68301;BME280;55146;47.468;18.806;2023-04-03T01:28:18;100023.59;;;6.18;66.80
68301;BME280;55146;47.468;18.806;2023-04-03T01:31:06;100019.47;;;6.15;67.42
68301;BME280;55146;47.468;18.806;2023-04-03T01:33:37;100023.50;;;6.13;67.49
68301;BME280;55146;47.468;18.806;2023-04-03T01:36:02;100022.19;;;6.15;68.25
68301;BME280;55146;47.468;18.806;2023-04-03T01:38:28;100020.37;;;6.04;68.68
68301;BME280;55146;47.468;18.806;2023-04-03T01:40:53;100019.28;;;6.05;68.43
68301;BME280;55146;47.468;18.806;2023-04-03T01:43:19;100019.47;;;6.15;67.75
68301;BME280;55146;47.468;18.806;2023-04-03T01:45:44;100020.13;;;6.22;68.01
68301;BME280;55146;47.468;18.806;2023-04-03T01:48:11;100022.28;;;6.03;68.84
68301;BME280;55146;47.468;18.806;2023-04-03T01:50:37;100031.28;;;6.04;68.22
68301;BME280;55146;47.468;18.806;2023-04-03T01:53:02;100036.59;;;6.11;67.97
68301;BME280;55146;47.468;18.806;2023-04-03T01:55:28;100031.69;;;5.96;68.19
68301;BME280;55146;47.468;18.806;2023-04-03T01:57:53;100039.56;;;5.81;68.74
68301;BME280;55146;47.468;18.806;2023-04-03T02:00:18;100038.38;;;5.88;68.48
68301;BME280;55146;47.468;18.806;2023-04-03T02:02:44;100039.44;;;5.87;67.88
68301;BME280;55146;47.468;18.806;2023-04-03T02:05:10;100040.63;;;5.91;69.37
68301;BME280;55146;47.468;18.806;2023-04-03T02:07:35;100035.41;;;5.90;68.98
68301;BME280;55146;47.468;18.806;2023-04-03T02:10:01;100041.44;;;5.92;68.33
68301;BME280;55146;47.468;18.806;2023-04-03T02:12:26;100041.44;;;5.92;69.52
68301;BME280;55146;47.468;18.806;2023-04-03T02:14:51;100039.56;;;5.92;69.48
68301;BME280;55146;47.468;18.806;2023-04-03T02:17:17;100044.53;;;5.84;69.69
68301;BME280;55146;47.468;18.806;2023-04-03T02:19:43;100043.72;;;5.83;69.36
68301;BME280;55146;47.468;18.806;2023-04-03T02:22:08;100042.19;;;5.76;69.63
68301;BME280;55146;47.468;18.806;2023-04-03T02:24:33;100035.91;;;5.75;69.84
68301;BME280;55146;47.468;18.806;2023-04-03T02:26:59;100035.47;;;5.66;70.18
68301;BME280;55146;47.468;18.806;2023-04-03T02:29:24;100037.03;;;5.62;69.84
68301;BME280;55146;47.468;18.806;2023-04-03T02:31:50;100048.91;;;5.56;70.45
68301;BME280;55146;47.468;18.806;2023-04-03T02:34:16;100044.37;;;5.62;70.19
68301;BME280;55146;47.468;18.806;2023-04-03T02:36:41;100044.19;;;5.52;70.57
68301;BME280;55146;47.468;18.806;2023-04-03T02:39:07;100044.69;;;5.49;70.20
68301;BME280;55146;47.468;18.806;2023-04-03T02:41:33;100042.62;;;5.56;70.37
68301;BME280;55146;47.468;18.806;2023-04-03T02:44:02;100038.97;;;5.50;70.47
68301;BME280;55146;47.468;18.806;2023-04-03T02:46:28;100032.94;;;5.48;71.00
68301;BME280;55146;47.468;18.806;2023-04-03T02:48:53;100043.59;;;5.50;70.87
68301;BME280;55146;47.468;18.806;2023-04-03T02:51:19;100043.03;;;5.48;70.38
68301;BME280;55146;47.468;18.806;2023-04-03T02:53:44;100040.31;;;5.48;71.31
68301;BME280;55146;47.468;18.806;2023-04-03T02:56:10;100036.31;;;5.27;71.80
68301;BME280;55146;47.468;18.806;2023-04-03T02:58:35;100037.81;;;5.46;72.24
68301;BME280;55146;47.468;18.806;2023-04-03T03:01:01;100038.88;;;5.45;71.77
68301;BME280;55146;47.468;18.806;2023-04-03T03:03:26;100037.66;;;5.53;71.62
68301;BME280;55146;47.468;18.806;2023-04-03T03:06:03;100036.87;;;5.41;72.35
68301;BME280;55146;47.468;18.806;2023-04-03T03:08:28;100038.69;;;5.35;71.97
68301;BME280;55146;47.468;18.806;2023-04-03T03:10:54;100036.31;;;5.27;72.83
68301;BME280;55146;47.468;18.806;2023-04-03T03:13:19;100037.00;;;5.34;72.36
68301;BME280;55146;47.468;18.806;2023-04-03T03:15:45;100046.06;;;5.23;73.30
68301;BME280;55146;47.468;18.806;2023-04-03T03:18:10;100047.47;;;5.25;72.85
68301;BME280;55146;47.468;18.806;2023-04-03T03:20:36;100048.13;;;5.04;73.61
68301;BME280;55146;47.468;18.806;2023-04-03T03:23:01;100045.13;;;5.17;72.70
68301;BME280;55146;47.468;18.806;2023-04-03T03:25:26;100053.78;;;5.03;73.27
68301;BME280;55146;47.468;18.806;2023-04-03T03:27:52;100047.19;;;4.99;73.81
68301;BME280;55146;47.468;18.806;2023-04-03T03:30:17;100041.47;;;5.00;73.32
68301;BME280;55146;47.468;18.806;2023-04-03T03:32:42;100041.94;;;5.09;73.37
68301;BME280;55146;47.468;18.806;2023-04-03T03:35:08;100041.25;;;4.90;74.01
68301;BME280;55146;47.468;18.806;2023-04-03T03:37:33;100044.94;;;4.84;73.26
68301;BME280;55146;47.468;18.806;2023-04-03T03:39:59;100045.88;;;4.89;74.16
68301;BME280;55146;47.468;18.806;2023-04-03T03:42:24;100041.50;;;4.77;73.75
68301;BME280;55146;47.468;18.806;2023-04-03T03:44:50;100036.03;;;4.77;74.48
68301;BME280;55146;47.468;18.806;2023-04-03T03:47:16;100042.56;;;4.76;74.42
68301;BME280;55146;47.468;18.806;2023-04-03T03:49:42;100044.34;;;4.70;74.27
68301;BME280;55146;47.468;18.806;2023-04-03T03:52:10;100033.31;;;4.65;74.35
68301;BME280;55146;47.468;18.806;2023-04-03T03:54:37;100036.78;;;4.61;74.99
68301;BME280;55146;47.468;18.806;2023-04-03T03:57:03;100038.31;;;4.57;74.98
68301;BME280;55146;47.468;18.806;2023-04-03T03:59:28;100035.34;;;4.58;74.76
68301;BME280;55146;47.468;18.806;2023-04-03T04:01:53;100031.56;;;4.36;75.63
68301;BME280;55146;47.468;18.806;2023-04-03T04:04:19;100048.34;;;4.44;75.57
68301;BME280;55146;47.468;18.806;2023-04-03T04:06:45;100045.06;;;4.42;75.21
68301;BME280;55146;47.468;18.806;2023-04-03T04:09:10;100043.00;;;4.26;76.21
68301;BME280;55146;47.468;18.806;2023-04-03T04:11:35;100036.75;;;4.26;75.95
68301;BME280;55146;47.468;18.806;2023-04-03T04:14:01;100046.34;;;4.28;75.72
68301;BME280;55146;47.468;18.806;2023-04-03T04:16:26;100036.38;;;4.34;75.76
68301;BME280;55146;47.468;18.806;2023-04-03T04:18:51;100043.59;;;4.28;75.62
68301;BME280;55146;47.468;18.806;2023-04-03T04:21:17;100045.16;;;4.36;75.80
68301;BME280;55146;47.468;18.806;2023-04-03T04:23:42;100045.62;;;4.44;75.34
68301;BME280;55146;47.468;18.806;2023-04-03T04:26:07;100053.44;;;4.29;75.64
68301;BME280;55146;47.468;18.806;2023-04-03T04:28:33;100062.91;;;4.27;76.40
68301;BME280;55146;47.468;18.806;2023-04-03T04:30:58;100067.75;;;4.25;76.00
68301;BME280;55146;47.468;18.806;2023-04-03T04:33:23;100077.31;;;4.16;76.33
68301;BME280;55146;47.468;18.806;2023-04-03T04:35:49;100073.44;;;4.23;76.40
68301;BME280;55146;47.468;18.806;2023-04-03T04:38:15;100077.22;;;4.34;76.05
68301;BME280;55146;47.468;18.806;2023-04-03T04:40:40;100079.97;;;4.34;76.32
68301;BME280;55146;47.468;18.806;2023-04-03T04:43:06;100079.59;;;4.30;76.25
68301;BME280;55146;47.468;18.806;2023-04-03T04:45:32;100080.91;;;4.28;76.41
68301;BME280;55146;47.468;18.806;2023-04-03T04:47:57;100073.06;;;4.20;77.05
68301;BME280;55146;47.468;18.806;2023-04-03T04:50:22;100072.00;;;4.21;77.14
68301;BME280;55146;47.468;18.806;2023-04-03T04:52:48;100074.63;;;4.27;77.15
68301;BME280;55146;47.468;18.806;2023-04-03T04:55:13;100079.12;;;4.33;76.71
68301;BME280;55146;47.468;18.806;2023-04-03T04:57:39;100070.13;;;4.33;76.54
68301;BME280;55146;47.468;18.806;2023-04-03T05:00:04;100074.50;;;4.22;76.21
68301;BME280;55146;47.468;18.806;2023-04-03T05:02:30;100083.25;;;4.24;76.65
68301;BME280;55146;47.468;18.806;2023-04-03T05:04:56;100076.59;;;4.20;76.69
68301;BME280;55146;47.468;18.806;2023-04-03T05:07:22;100087.03;;;4.23;76.52
68301;BME280;55146;47.468;18.806;2023-04-03T05:09:47;100087.47;;;4.08;76.70
68301;BME280;55146;47.468;18.806;2023-04-03T05:12:13;100088.91;;;4.11;77.57
68301;BME280;55146;47.468;18.806;2023-04-03T05:14:38;100095.41;;;4.10;77.05
68301;BME280;55146;47.468;18.806;2023-04-03T05:17:04;100091.84;;;4.10;77.15
68301;BME280;55146;47.468;18.806;2023-04-03T05:19:29;100096.47;;;4.09;76.96
68301;BME280;55146;47.468;18.806;2023-04-03T05:21:55;100095.19;;;4.12;nan
68301;BME280;55146;47.468;18.806;2023-04-03T05:24:20;100096.88;;;4.24;76.65
68301;BME280;55146;47.468;18.806;2023-04-03T05:26:46;100101.00;;;4.27;76.90
68301;BME280;55146;47.468;18.806;2023-04-03T05:29:11;100102.69;;;4.28;76.65
68301;BME280;55146;47.468;18.806;2023-04-03T05:31:40;100100.66;;;4.23;76.69
68301;BME280;55146;47.468;18.806;2023-04-03T05:34:05;100105.97;;;4.18;77.79
68301;BME280;55146;47.468;18.806;2023-04-03T05:36:31;100102.56;;;4.23;77.12
68301;BME280;55146;47.468;18.806;2023-04-03T05:38:57;100095.56;;;4.27;77.25
68301;BME280;55146;47.468;18.806;2023-04-03T05:41:23;100103.16;;;4.25;77.76
68301;BME280;55146;47.468;18.806;2023-04-03T05:43:48;100106.59;;;4.32;78.00
68301;BME280;55146;47.468;18.806;2023-04-03T05:46:16;100107.19;;;4.34;78.11
68301;BME280;55146;47.468;18.806;2023-04-03T05:48:43;100109.81;;;4.52;76.98
68301;BME280;55146;47.468;18.806;2023-04-03T05:51:23;100101.31;;;4.48;77.44
68301;BME280;55146;47.468;18.806;2023-04-03T05:53:56;100104.03;;;4.48;77.47
68301;BME280;55146;47.468;18.806;2023-04-03T05:56:23;100105.22;;;4.53;77.42
68301;BME280;55146;47.468;18.806;2023-04-03T05:58:49;100102.28;;;4.66;77.43
68301;BME280;55146;47.468;18.806;2023-04-03T06:01:14;100110.31;;;4.72;76.23
68301;BME280;55146;47.468;18.806;2023-04-03T06:03:41;100102.16;;;4.72;75.74
68301;BME280;55146;47.468;18.806;2023-04-03T06:06:06;100105.59;;;4.79;76.59
68301;BME280;55146;47.468;18.806;2023-04-03T06:08:33;100102.75;;;4.98;75.86
68301;BME280;55146;47.468;18.806;2023-04-03T06:10:59;100104.87;;;4.96;75.30
68301;BME280;55146;47.468;18.806;2023-04-03T06:13:24;100104.16;;;5.00;75.20
68301;BME280;55146;47.468;18.806;2023-04-03T06:15:50;100107.12;;;5.10;74.43
68301;BME280;55146;47.468;18.806;2023-04-03T06:18:15;100112.34;;;5.23;73.94
68301;BME280;55146;47.468;18.806;2023-04-03T06:20:40;100114.94;;;5.30;73.58
68301;BME280;55146;47.468;18.806;2023-04-03T06:23:06;100121.87;;;5.49;73.05
68301;BME280;55146;47.468;18.806;2023-04-03T06:25:31;100126.38;;;5.67;72.33
68301;BME280;55146;47.468;18.806;2023-04-03T06:27:57;100128.91;;;5.85;72.48
68301;BME280;55146;47.468;18.806;2023-04-03T06:30:22;100125.97;;;6.15;72.65
68301;BME280;55146;47.468;18.806;2023-04-03T06:32:47;100122.28;;;6.38;71.81
68301;BME280;55146;47.468;18.806;2023-04-03T06:35:13;100115.94;;;6.66;70.78
68301;BME280;55146;47.468;18.806;2023-04-03T06:37:38;100113.53;;;6.69;69.26
68301;BME280;55146;47.468;18.806;2023-04-03T06:40:04;100111.97;;;6.90;69.07
68301;BME280;55146;47.468;18.806;2023-04-03T06:42:30;100114.13;;;7.10;67.11
68301;BME280;55146;47.468;18.806;2023-04-03T06:44:55;100113.59;;;7.29;67.32
68301;BME280;55146;47.468;18.806;2023-04-03T06:47:21;100110.66;;;7.53;66.86
68301;BME280;55146;47.468;18.806;2023-04-03T06:49:46;100110.91;;;7.73;65.85
68301;BME280;55146;47.468;18.806;2023-04-03T06:52:11;100119.84;;;7.90;64.84
68301;BME280;55146;47.468;18.806;2023-04-03T06:54:37;100124.25;;;8.40;63.87
68301;BME280;55146;47.468;18.806;2023-04-03T06:57:03;100130.25;;;8.64;63.95
68301;BME280;55146;47.468;18.806;2023-04-03T06:59:28;100127.56;;;8.69;62.57
68301;BME280;55146;47.468;18.806;2023-04-03T07:01:54;100124.25;;;8.67;63.05
68301;BME280;55146;47.468;18.806;2023-04-03T07:04:19;100119.81;;;8.98;62.68
68301;BME280;55146;47.468;18.806;2023-04-03T07:06:47;100124.38;;;8.50;61.35
68301;BME280;55146;47.468;18.806;2023-04-03T07:09:14;100126.03;;;8.02;61.71
68301;BME280;55146;47.468;18.806;2023-04-03T07:11:40;100128.41;;;7.72;63.72
68301;BME280;55146;47.468;18.806;2023-04-03T07:14:06;100143.00;;;7.56;63.96
68301;BME280;55146;47.468;18.806;2023-04-03T07:16:33;100139.47;;;7.60;63.23
68301;BME280;55146;47.468;18.806;2023-04-03T07:19:00;100133.47;;;7.42;64.34
68301;BME280;55146;47.468;18.806;2023-04-03T07:21:25;100140.94;;;7.46;64.68
68301;BME280;55146;47.468;18.806;2023-04-03T07:23:51;100140.38;;;7.44;64.11
68301;BME280;55146;47.468;18.806;2023-04-03T07:26:16;100147.69;;;7.39;64.47
68301;BME280;55146;47.468;18.806;2023-04-03T07:28:42;100149.88;;;7.58;65.63
68301;BME280;55146;47.468;18.806;2023-04-03T07:31:12;100135.28;;;7.75;63.65
68301;BME280;55146;47.468;18.806;2023-04-03T07:33:42;100135.94;;;7.82;64.08
68301;BME280;55146;47.468;18.806;2023-04-03T07:36:09;100134.06;;;7.87;64.72
68301;BME280;55146;47.468;18.806;2023-04-03T07:38:36;100141.44;;;8.08;64.03
68301;BME280;55146;47.468;18.806;2023-04-03T07:41:03;100135.00;;;8.20;62.86
68301;BME280;55146;47.468;18.806;2023-04-03T07:43:29;100146.84;;;8.25;62.32
68301;BME280;55146;47.468;18.806;2023-04-03T07:45:54;100138.44;;;8.32;60.68
68301;BME280;55146;47.468;18.806;2023-04-03T07:48:21;100142.75;;;8.28;60.06
68301;BME280;55146;47.468;18.806;2023-04-03T07:50:47;100136.16;;;8.50;61.08
68301;BME280;55146;47.468;18.806;2023-04-03T07:53:13;100145.72;;;8.48;61.89
68301;BME280;55146;47.468;18.806;2023-04-03T07:55:39;100142.16;;;8.47;60.71
68301;BME280;55146;47.468;18.806;2023-04-03T07:58:12;100151.41;;;8.68;60.73
68301;BME280;55146;47.468;18.806;2023-04-03T08:00:38;100141.91;;;8.81;59.52
68301;BME280;55146;47.468;18.806;2023-04-03T08:03:04;100146.75;;;8.69;60.05
68301;BME280;55146;47.468;18.806;2023-04-03T08:05:31;100147.94;;;8.83;59.18
68301;BME280;55146;47.468;18.806;2023-04-03T08:07:56;100144.72;;;8.91;58.73
68301;BME280;55146;47.468;18.806;2023-04-03T08:10:22;100151.53;;;8.83;58.78
68301;BME280;55146;47.468;18.806;2023-04-03T08:12:48;100156.69;;;8.75;58.36
68301;BME280;55146;47.468;18.806;2023-04-03T08:15:14;100159.16;;;8.76;57.57
68301;BME280;55146;47.468;18.806;2023-04-03T08:17:40;100150.75;;;8.88;59.43
68301;BME280;55146;47.468;18.806;2023-04-03T08:20:06;100157.62;;;8.90;58.67
68301;BME280;55146;47.468;18.806;2023-04-03T08:22:33;100157.62;;;8.90;58.95
68301;BME280;55146;47.468;18.806;2023-04-03T08:24:59;100165.59;;;8.92;58.67
68301;BME280;55146;47.468;18.806;2023-04-03T08:27:25;100168.94;;;8.99;58.35
68301;BME280;55146;47.468;18.806;2023-04-03T08:29:51;100157.16;;;8.99;58.65
68301;BME280;55146;47.468;18.806;2023-04-03T08:32:17;100157.22;;;9.09;58.96
68301;BME280;55146;47.468;18.806;2023-04-03T08:34:43;100152.87;;;9.13;57.43
68301;BME280;55146;47.468;18.806;2023-04-03T08:37:08;100154.34;;;9.25;56.94
68301;BME280;55146;47.468;18.806;2023-04-03T08:39:33;100156.75;;;9.22;56.58
68301;BME280;55146;47.468;18.806;2023-04-03T08:42:02;100160.06;;;9.19;55.32
68301;BME280;55146;47.468;18.806;2023-04-03T08:45:12;100160.06;;;9.19;55.66
68301;BME280;55146;47.468;18.806;2023-04-03T08:50:14;100154.97;;;9.38;54.77
68301;BME280;55146;47.468;18.806;2023-04-03T08:52:55;100154.41;;;9.41;57.23
68301;BME280;55146;47.468;18.806;2023-04-03T08:55:25;100160.22;;;9.44;56.59
68301;BME280;55146;47.468;18.806;2023-04-03T08:58:33;100148.25;;;9.70;55.38
68301;BME280;55146;47.468;18.806;2023-04-03T09:01:03;100140.31;;;9.74;55.45
68301;BME280;55146;47.468;18.806;2023-04-03T09:03:40;100148.09;;;9.87;54.67
68301;BME280;55146;47.468;18.806;2023-04-03T09:11:27;100162.47;;;10.14;54.17
68301;BME280;55146;47.468;18.806;2023-04-03T09:17:03;100163.63;;;10.24;52.96
68301;BME280;55146;47.468;18.806;2023-04-03T09:22:39;100159.50;;;10.26;51.64
68301;BME280;55146;47.468;18.806;2023-04-03T09:25:33;100156.78;;;10.36;49.83
68301;BME280;55146;47.468;18.806;2023-04-03T09:28:01;100159.81;;;10.40;51.82
68301;BME280;55146;47.468;18.806;2023-04-03T09:30:28;100160.13;;;10.64;51.49
68301;BME280;55146;47.468;18.806;2023-04-03T09:32:55;100164.53;;;11.05;51.40
68301;BME280;55146;47.468;18.806;2023-04-03T09:35:30;100161.22;;;11.23;50.92
68301;BME280;55146;47.468;18.806;2023-04-03T09:40:37;100161.28;;;12.13;48.38
68301;BME280;55146;47.468;18.806;2023-04-03T09:45:41;100148.63;;;12.56;46.66
68301;BME280;55146;47.468;18.806;2023-04-03T09:48:15;100147.41;;;12.72;47.32
68301;BME280;55146;47.468;18.806;2023-04-03T09:53:32;100142.31;;;12.50;46.72
68301;BME280;55146;47.468;18.806;2023-04-03T09:56:00;100137.16;;;12.39;48.09
68301;BME280;55146;47.468;18.806;2023-04-03T09:58:33;100138.09;;;12.19;45.65
68301;BME280;55146;47.468;18.806;2023-04-03T10:01:01;100135.87;;;12.16;48.42
68301;BME280;55146;47.468;18.806;2023-04-03T10:03:33;100137.81;;;12.21;46.98
68301;BME280;55146;47.468;18.806;2023-04-03T10:06:21;100141.94;;;12.18;48.16
68301;BME280;55146;47.468;18.806;2023-04-03T10:08:59;100147.56;;;12.03;46.88
68301;BME280;55146;47.468;18.806;2023-04-03T10:11:26;100148.72;;;11.87;48.07
68301;BME280;55146;47.468;18.806;2023-04-03T10:14:00;100145.44;;;11.74;47.83
68301;BME280;55146;47.468;18.806;2023-04-03T10:16:31;100146.53;;;11.68;45.96
68301;BME280;55146;47.468;18.806;2023-04-03T10:19:09;100138.03;;;11.60;46.61
68301;BME280;55146;47.468;18.806;2023-04-03T10:21:53;100138.03;;;11.60;48.29
68301;BME280;55146;47.468;18.806;2023-04-03T10:24:31;100138.06;;;11.45;48.64
68301;BME280;55146;47.468;18.806;2023-04-03T10:27:16;100137.81;;;11.26;46.17
68301;BME280;55146;47.468;18.806;2023-04-03T10:29:51;100139.75;;;11.05;47.38
68301;BME280;55146;47.468;18.806;2023-04-03T10:33:12;100134.00;;;10.86;46.98
68301;BME280;55146;47.468;18.806;2023-04-03T10:35:42;100143.06;;;10.87;48.50
68301;BME280;55146;47.468;18.806;2023-04-03T10:44:17;100135.09;;;10.65;48.98
68301;BME280;55146;47.468;18.806;2023-04-03T10:57:39;100138.13;;;10.79;48.03
68301;BME280;55146;47.468;18.806;2023-04-03T11:00:20;100140.91;;;10.79;48.80
68301;BME280;55146;47.468;18.806;2023-04-03T11:02:56;100136.22;;;10.79;48.24
68301;BME280;55146;47.468;18.806;2023-04-03T11:11:05;100137.31;;;10.78;47.89
68301;BME280;55146;47.468;18.806;2023-04-03T11:13:40;100132.63;;;10.74;48.18
68301;BME280;55146;47.468;18.806;2023-04-03T11:16:07;100130.16;;;10.72;48.76
68301;BME280;55146;47.468;18.806;2023-04-03T11:18:42;100124.66;;;10.82;47.67
68301;BME280;55146;47.468;18.806;2023-04-03T11:23:41;100118.84;;;10.69;47.28
68301;BME280;55146;47.468;18.806;2023-04-03T11:26:12;100122.44;;;10.69;48.46
68301;BME280;55146;47.468;18.806;2023-04-03T11:28:38;100119.69;;;10.74;47.91
68301;BME280;55146;47.468;18.806;2023-04-03T11:34:34;100113.91;;;10.66;47.87
68301;BME280;55146;47.468;18.806;2023-04-03T11:36:46;100110.34;;;10.60;46.83
68301;BME280;55146;47.468;18.806;2023-04-03T11:39:26;100118.03;;;10.58;46.85
68301;BME280;55146;47.468;18.806;2023-04-03T11:41:54;100111.16;;;10.61;48.89
68301;BME280;55146;47.468;18.806;2023-04-03T11:44:38;100105.66;;;10.61;47.47
68301;BME280;55146;47.468;18.806;2023-04-03T11:47:09;100104.28;;;10.68;48.82
68301;BME280;55146;47.468;18.806;2023-04-03T11:50:01;100101.28;;;10.80;49.33
68301;BME280;55146;47.468;18.806;2023-04-03T12:00:55;100095.50;;;10.71;46.78
68301;BME280;55146;47.468;18.806;2023-04-03T12:16:47;100096.88;;;10.79;47.00
68301;BME280;55146;47.468;18.806;2023-04-03T12:26:41;100100.16;;;10.81;47.61
68301;BME280;55146;47.468;18.806;2023-04-03T12:29:17;100095.47;;;10.86;47.11
68301;BME280;55146;47.468;18.806;2023-04-03T12:35:14;100088.03;;;10.82;46.31
68301;BME280;55146;47.468;18.806;2023-04-03T12:43:35;100085.00;;;10.88;47.14
68301;BME280;55146;47.468;18.806;2023-04-03T12:48:57;100066.56;;;11.09;46.43
68301;BME280;55146;47.468;18.806;2023-04-03T12:51:38;100068.72;;;11.12;46.55
68301;BME280;55146;47.468;18.806;2023-04-03T12:54:32;100064.56;;;11.25;45.77
68301;BME280;55146;47.468;18.806;2023-04-03T12:57:11;100061.88;;;11.10;45.74
68301;BME280;55146;47.468;18.806;2023-04-03T12:59:37;100061.56;;;11.11;46.61
68301;BME280;55146;47.468;18.806;2023-04-03T13:02:14;100072.62;;;10.91;46.53
68301;BME280;55146;47.468;18.806;2023-04-03T13:04:42;100071.25;;;10.93;45.77
68301;BME280;55146;47.468;18.806;2023-04-03T13:07:32;100068.22;;;10.75;46.32
68301;BME280;55146;47.468;18.806;2023-04-03T13:12:33;100065.22;;;10.76;47.52
68301;BME280;55146;47.468;18.806;2023-04-03T13:15:11;100050.91;;;10.69;47.51
68301;BME280;55146;47.468;18.806;2023-04-03T13:17:39;100050.09;;;10.74;47.01
68301;BME280;55146;47.468;18.806;2023-04-03T13:20:19;100035.78;;;10.77;48.15
68301;BME280;55146;47.468;18.806;2023-04-03T13:23:04;100040.72;;;10.70;47.61
68301;BME280;55146;47.468;18.806;2023-04-03T13:25:33;100032.47;;;10.80;47.33
68301;BME280;55146;47.468;18.806;2023-04-03T13:28:01;100030.53;;;10.90;46.66
68301;BME280;55146;47.468;18.806;2023-04-03T13:30:32;100026.13;;;10.84;47.34
68301;BME280;55146;47.468;18.806;2023-04-03T13:33:01;100032.47;;;10.90;47.63
68301;BME280;55146;47.468;18.806;2023-04-03T13:35:40;100033.59;;;10.59;47.29
68301;BME280;55146;47.468;18.806;2023-04-03T13:38:22;100026.72;;;10.46;47.10
68301;BME280;55146;47.468;18.806;2023-04-03T13:40:55;100027.81;;;10.50;47.67
68301;BME280;55146;47.468;18.806;2023-04-03T13:43:28;100034.41;;;10.44;47.62
68301;BME280;55146;47.468;18.806;2023-04-03T13:48:20;100035.25;;;10.24;48.28
68301;BME280;55146;47.468;18.806;2023-04-03T13:56:17;100033.53;;;9.98;48.30
68301;BME280;55146;47.468;18.806;2023-04-03T14:01:53;100031.91;;;10.12;48.09
68301;BME280;55146;47.468;18.806;2023-04-03T14:04:31;100024.72;;;10.01;49.06
68301;BME280;55146;47.468;18.806;2023-04-03T14:06:57;100025.56;;;10.01;49.13
68301;BME280;55146;47.468;18.806;2023-04-03T14:09:26;100024.72;;;9.96;47.23
68301;BME280;55146;47.468;18.806;2023-04-03T14:11:55;100022.53;;;9.93;48.49
68301;BME280;55146;47.468;18.806;2023-04-03T14:14:26;100019.44;;;9.69;47.54
68301;BME280;55146;47.468;18.806;2023-04-03T14:16:55;100026.91;;;9.84;48.31
68301;BME280;55146;47.468;18.806;2023-04-03T14:19:26;100027.72;;;9.79;49.38
68301;BME280;55146;47.468;18.806;2023-04-03T14:21:54;100026.56;;;9.65;48.47
68301;BME280;55146;47.468;18.806;2023-04-03T14:24:20;100037.22;;;9.46;47.70
68301;BME280;55146;47.468;18.806;2023-04-03T14:26:47;100031.97;;;9.45;48.06
68301;BME280;55146;47.468;18.806;2023-04-03T14:29:14;100032.22;;;9.38;48.24
68301;BME280;55146;47.468;18.806;2023-04-03T14:31:41;100036.34;;;9.36;48.14
68301;BME280;55146;47.468;18.806;2023-04-03T14:34:12;100033.81;;;9.19;47.15
68301;BME280;55146;47.468;18.806;2023-04-03T14:36:39;100035.19;;;9.21;48.07
68301;BME280;55146;47.468;18.806;2023-04-03T14:39:05;100036.84;;;9.22;49.01
68301;BME280;55146;47.468;18.806;2023-04-03T14:41:30;100043.44;;;9.26;48.38
68301;BME280;55146;47.468;18.806;2023-04-03T14:43:56;100037.41;;;9.24;48.03
68301;BME280;55146;47.468;18.806;2023-04-03T14:46:25;100035.19;;;9.21;48.20
68301;BME280;55146;47.468;18.806;2023-04-03T14:48:52;100044.44;;;9.05;48.45